createdAt,value
2023-01-17T00:02:21.141Z,75.73
2023-01-17T00:05:07.867Z,75.63
2023-01-17T00:07:55.148Z,75.90
2023-01-17T00:10:25.074Z,75.93
2023-01-17T00:12:54.770Z,75.99
2023-01-17T00:15:26.325Z,75.87
2023-01-17T00:17:57.561Z,75.80
2023-01-17T00:20:48.880Z,75.74
2023-01-17T00:24:00.881Z,75.78
2023-01-17T00:26:30.782Z,75.69
2023-01-17T00:28:58.739Z,75.82
2023-01-17T00:31:26.691Z,75.96
2023-01-17T00:33:54.374Z,76.13
2023-01-17T00:36:22.119Z,76.22
2023-01-17T00:38:49.818Z,76.30
2023-01-17T00:41:17.752Z,76.16
2023-01-17T00:44:04.289Z,76.24
2023-01-17T00:46:50.957Z,76.08
2023-01-17T00:49:37.573Z,75.94
2023-01-17T00:52:24.000Z,76.04
2023-01-17T00:55:10.907Z,76.00
2023-01-17T00:57:57.506Z,76.21
2023-01-17T01:00:44.230Z,76.28
2023-01-17T01:03:31.091Z,76.21
2023-01-17T01:06:17.865Z,76.11
2023-01-17T01:09:04.057Z,76.11
2023-01-17T01:11:51.185Z,75.92
2023-01-17T01:14:37.824Z,76.03
2023-01-17T01:17:24.674Z,76.01
2023-01-17T01:20:11.424Z,76.24
2023-01-17T01:22:57.961Z,76.27
2023-01-17T01:25:44.159Z,76.26
2023-01-17T01:28:32.273Z,76.39
2023-01-17T01:31:23.823Z,76.28
2023-01-17T01:33:53.143Z,76.17
2023-01-17T01:36:21.185Z,76.06
2023-01-17T01:38:50.332Z,76.29
2023-01-17T01:41:18.493Z,76.20
2023-01-17T01:43:49.284Z,76.37
2023-01-17T01:46:24.572Z,76.33
2023-01-17T01:49:13.461Z,76.58
2023-01-17T01:51:45.351Z,76.48
2023-01-17T01:54:34.128Z,76.41
2023-01-17T01:57:04.235Z,76.22
2023-01-17T01:59:33.642Z,76.32
2023-01-17T02:02:01.580Z,75.97
2023-01-17T02:04:29.493Z,76.08
2023-01-17T02:07:07.355Z,75.96
2023-01-17T02:09:35.369Z,75.62
2023-01-17T02:12:03.874Z,75.73
2023-01-17T02:14:31.758Z,75.77
2023-01-17T02:17:24.786Z,75.70
2023-01-17T02:20:02.113Z,75.40
2023-01-17T02:23:01.642Z,75.40
2023-01-17T02:25:48.304Z,75.07
2023-01-17T02:28:36.835Z,75.15
2023-01-17T02:31:27.625Z,74.92
2023-01-17T02:34:08.477Z,74.91
2023-01-17T02:37:01.230Z,74.92
2023-01-17T02:39:35.015Z,75.07
2023-01-17T02:42:07.648Z,74.80
2023-01-17T02:44:42.954Z,74.61
2023-01-17T02:47:26.493Z,75.00
2023-01-17T02:49:58.487Z,74.78
2023-01-17T02:52:49.689Z,74.70
2023-01-17T02:55:37.108Z,74.73
2023-01-17T02:58:16.931Z,74.51
2023-01-17T03:01:10.130Z,74.34
2023-01-17T03:03:55.256Z,74.24
2023-01-17T03:06:33.818Z,74.24
2023-01-17T03:09:02.532Z,74.25
2023-01-17T03:11:30.443Z,74.60
2023-01-17T03:13:58.503Z,74.45
2023-01-17T03:16:29.340Z,74.38
2023-01-17T03:18:57.362Z,74.33
2023-01-17T03:21:25.734Z,74.66
2023-01-17T03:23:53.608Z,74.42
2023-01-17T03:26:21.842Z,74.28
2023-01-17T03:28:49.845Z,74.38
2023-01-17T03:31:20.047Z,74.18
2023-01-17T03:33:48.537Z,74.39
2023-01-17T03:36:16.478Z,74.15
2023-01-17T03:38:44.885Z,74.16
2023-01-17T03:41:13.155Z,74.12
2023-01-17T03:43:41.240Z,73.98
2023-01-17T03:46:21.550Z,73.78
2023-01-17T03:48:50.372Z,74.19
2023-01-17T03:51:18.466Z,73.90
2023-01-17T03:53:50.109Z,74.00
2023-01-17T03:56:18.448Z,73.92
2023-01-17T03:58:46.567Z,74.05
2023-01-17T04:01:14.739Z,74.08
2023-01-17T04:03:43.436Z,73.80
2023-01-17T04:06:12.093Z,73.86
2023-01-17T04:08:42.954Z,73.92
2023-01-17T04:11:10.944Z,73.84
2023-01-17T04:13:38.816Z,73.80
2023-01-17T04:16:11.010Z,73.72
2023-01-17T04:18:38.911Z,73.73
2023-01-17T04:21:07.801Z,73.78
2023-01-17T04:23:35.814Z,73.72
2023-01-17T04:26:03.875Z,73.87
2023-01-17T04:28:31.881Z,73.78
2023-01-17T04:31:00.587Z,73.90
2023-01-17T04:33:28.518Z,73.76
2023-01-17T04:35:56.648Z,73.83
2023-01-17T04:38:24.926Z,73.83
2023-01-17T04:40:53.968Z,73.85
2023-01-17T04:43:21.810Z,73.68
2023-01-17T04:45:55.230Z,73.60
2023-01-17T04:48:24.253Z,73.60
2023-01-17T04:50:51.998Z,73.44
2023-01-17T04:53:19.835Z,73.36
2023-01-17T04:55:47.863Z,73.38
2023-01-17T04:58:18.143Z,73.47
2023-01-17T05:00:50.894Z,73.72
2023-01-17T05:03:20.190Z,73.66
2023-01-17T05:05:48.498Z,73.77
2023-01-17T05:08:16.481Z,73.69
2023-01-17T05:10:46.276Z,73.93
2023-01-17T05:13:14.342Z,74.02
2023-01-17T05:15:42.645Z,73.99
2023-01-17T05:18:18.219Z,73.86
2023-01-17T05:20:46.486Z,73.79
2023-01-17T05:23:14.657Z,73.73
2023-01-17T05:25:44.380Z,73.81
2023-01-17T05:28:13.164Z,73.72
2023-01-17T05:30:41.287Z,73.56
2023-01-17T05:33:10.356Z,73.57
2023-01-17T05:35:38.591Z,73.71
2023-01-17T05:38:06.495Z,73.63
2023-01-17T05:40:34.396Z,73.62
2023-01-17T05:43:06.699Z,73.61
2023-01-17T05:45:34.738Z,73.77
2023-01-17T05:48:03.136Z,73.85
2023-01-17T05:50:36.898Z,73.99
2023-01-17T05:53:08.316Z,73.98
2023-01-17T05:55:36.870Z,73.81
2023-01-17T05:58:05.430Z,73.68
2023-01-17T06:00:33.697Z,73.53
2023-01-17T06:03:01.665Z,73.38
2023-01-17T06:05:29.770Z,73.27
2023-01-17T06:07:58.169Z,73.30
2023-01-17T06:10:26.909Z,73.06
2023-01-17T06:13:03.412Z,73.09
2023-01-17T06:15:32.398Z,73.28
2023-01-17T06:18:05.151Z,73.23
2023-01-17T06:20:34.309Z,73.26
2023-01-17T06:23:04.514Z,72.99
2023-01-17T06:25:45.790Z,73.13
2023-01-17T06:28:16.016Z,73.16
2023-01-17T06:30:44.071Z,72.85
2023-01-17T06:33:12.875Z,72.71
2023-01-17T06:35:47.290Z,72.91
2023-01-17T06:38:15.082Z,72.62
2023-01-17T06:40:45.260Z,72.55
2023-01-17T06:43:13.119Z,72.43
2023-01-17T06:45:41.006Z,72.50
2023-01-17T06:48:08.907Z,72.44
2023-01-17T06:50:36.657Z,72.18
2023-01-17T06:53:07.445Z,72.26
2023-01-17T06:55:37.293Z,72.34
2023-01-17T06:58:05.135Z,72.61
2023-01-17T07:00:35.283Z,72.52
2023-01-17T07:03:03.384Z,72.46
2023-01-17T07:05:31.346Z,72.55
2023-01-17T07:07:59.219Z,72.67
2023-01-17T07:10:27.642Z,72.86
2023-01-17T07:12:59.976Z,72.87
2023-01-17T07:15:28.336Z,72.90
2023-01-17T07:17:56.333Z,72.66
2023-01-17T07:20:24.392Z,72.71
2023-01-17T07:22:52.277Z,72.66
2023-01-17T07:25:20.322Z,72.73
2023-01-17T07:27:48.694Z,72.54
2023-01-17T07:30:17.002Z,72.75
2023-01-17T07:32:44.770Z,72.65
2023-01-17T07:35:12.605Z,72.68
2023-01-17T07:37:40.496Z,72.76
2023-01-17T07:40:09.229Z,72.98
2023-01-17T07:42:37.346Z,72.98
2023-01-17T07:45:06.070Z,72.90
2023-01-17T07:47:34.127Z,73.22
2023-01-17T07:50:02.956Z,72.86
2023-01-17T07:52:31.369Z,72.88
2023-01-17T07:54:59.241Z,72.66
2023-01-17T07:57:27.197Z,72.72
2023-01-17T07:59:55.241Z,72.56
2023-01-17T08:02:23.725Z,72.52
2023-01-17T08:04:52.879Z,72.47
2023-01-17T08:07:21.409Z,72.13
2023-01-17T08:09:50.256Z,72.22
2023-01-17T08:12:18.273Z,72.52
2023-01-17T08:14:46.448Z,72.23
2023-01-17T08:17:16.414Z,72.06
2023-01-17T08:19:44.970Z,72.10
2023-01-17T08:22:12.993Z,72.20
2023-01-17T08:24:44.846Z,72.09
2023-01-17T08:27:15.320Z,71.97
2023-01-17T08:29:47.252Z,72.39
2023-01-17T08:32:15.982Z,72.22
2023-01-17T08:34:43.812Z,72.32
2023-01-17T08:37:11.732Z,72.26
2023-01-17T08:39:39.550Z,72.11
2023-01-17T08:42:07.426Z,72.10
2023-01-17T08:44:35.546Z,71.85
2023-01-17T08:47:03.343Z,71.94
2023-01-17T08:49:31.069Z,71.93
2023-01-17T08:51:59.039Z,71.63
2023-01-17T08:54:26.930Z,71.38
2023-01-17T08:56:55.792Z,71.53
2023-01-17T08:59:23.800Z,71.34
2023-01-17T09:01:52.670Z,71.21
2023-01-17T09:04:20.628Z,71.03
2023-01-17T09:06:48.933Z,71.33
2023-01-17T09:09:17.343Z,71.47
2023-01-17T09:11:45.239Z,71.22
2023-01-17T09:14:13.512Z,71.37
2023-01-17T09:16:41.508Z,71.64
2023-01-17T09:19:09.383Z,71.26
2023-01-17T09:21:37.712Z,71.25
2023-01-17T09:24:05.688Z,71.12
2023-01-17T09:26:33.693Z,71.36
2023-01-17T09:29:01.810Z,71.52
2023-01-17T09:31:29.949Z,71.47
2023-01-17T09:33:58.778Z,71.18
2023-01-17T09:36:29.326Z,70.85
2023-01-17T09:39:00.997Z,70.72
2023-01-17T09:41:31.225Z,70.31
2023-01-17T09:44:04.818Z,70.12
2023-01-17T09:46:37.891Z,70.38
2023-01-17T09:49:09.698Z,69.67
2023-01-17T09:51:37.763Z,69.41
2023-01-17T09:54:05.688Z,70.02
2023-01-17T09:56:41.525Z,69.74
2023-01-17T09:59:21.666Z,69.41
2023-01-17T10:02:11.418Z,69.31
2023-01-17T10:04:49.368Z,68.76
2023-01-17T10:07:28.694Z,68.42
2023-01-17T10:10:04.395Z,68.08
2023-01-17T10:12:39.836Z,68.13
2023-01-17T10:15:24.368Z,68.11
2023-01-17T10:18:34.407Z,67.88
2023-01-17T10:21:05.641Z,67.73
2023-01-17T10:26:25.405Z,67.46
2023-01-17T10:28:58.391Z,67.10
2023-01-17T10:31:29.045Z,67.35
2023-01-17T10:33:59.076Z,66.78
2023-01-17T10:36:30.348Z,66.81
2023-01-17T10:39:04.672Z,67.02
2023-01-17T10:41:39.417Z,67.23
2023-01-17T10:44:13.643Z,67.50
2023-01-17T10:46:46.880Z,66.98
2023-01-17T10:49:20.836Z,66.95
2023-01-17T10:52:00.700Z,66.45
2023-01-17T10:54:53.136Z,66.58
2023-01-17T10:57:23.794Z,66.85
2023-01-17T10:59:52.496Z,66.83
2023-01-17T11:02:28.257Z,66.31
2023-01-17T11:04:57.570Z,66.10
2023-01-17T11:07:27.032Z,66.06
2023-01-17T11:09:58.536Z,66.34
2023-01-17T11:12:41.805Z,66.73
2023-01-17T11:15:10.087Z,66.72
2023-01-17T11:17:53.357Z,66.25
2023-01-17T11:20:34.553Z,66.02
2023-01-17T11:23:21.884Z,66.43
2023-01-17T11:25:52.787Z,66.13
2023-01-17T11:28:23.745Z,65.86
2023-01-17T11:31:00.282Z,65.89
2023-01-17T11:33:36.124Z,65.89
2023-01-17T11:36:04.219Z,66.19
2023-01-17T11:38:32.637Z,66.12
2023-01-17T11:41:21.469Z,66.20
2023-01-17T11:43:59.666Z,65.51
2023-01-17T11:46:29.782Z,65.50
2023-01-17T11:49:00.345Z,65.05
2023-01-17T11:51:39.644Z,65.54
2023-01-17T11:54:18.011Z,65.51
2023-01-17T11:56:46.708Z,64.93
2023-01-17T11:59:29.611Z,65.37
2023-01-17T12:02:33.755Z,65.51
2023-01-17T12:05:33.215Z,65.42
2023-01-17T12:08:27.326Z,65.37
2023-01-17T12:11:22.171Z,65.15
2023-01-17T12:14:23.098Z,64.73
2023-01-17T12:16:58.916Z,64.20
2023-01-17T12:19:41.543Z,64.35
2023-01-17T12:22:23.958Z,64.83
2023-01-17T12:25:15.201Z,64.82
2023-01-17T12:28:08.761Z,65.02
2023-01-17T12:30:52.170Z,64.89
2023-01-17T12:33:27.939Z,64.51
2023-01-17T12:36:02.744Z,64.59
2023-01-17T12:38:37.197Z,63.92
2023-01-17T12:41:26.822Z,64.04
2023-01-17T12:44:00.568Z,64.56
2023-01-17T12:46:39.157Z,64.23
2023-01-17T12:49:23.562Z,63.92
2023-01-17T12:51:56.558Z,63.82
2023-01-17T12:54:29.950Z,63.73
2023-01-17T12:57:14.222Z,63.78
2023-01-17T13:00:01.806Z,63.54
2023-01-17T13:02:40.871Z,63.59
2023-01-17T13:05:15.749Z,63.58
2023-01-17T13:07:56.407Z,63.82
2023-01-17T13:10:33.433Z,63.61
2023-01-17T13:13:22.770Z,63.72
2023-01-17T13:16:13.641Z,63.47
2023-01-17T13:18:46.435Z,63.45
2023-01-17T13:21:26.828Z,63.38
2023-01-17T13:24:04.121Z,62.99
2023-01-17T13:27:11.444Z,63.11
2023-01-17T13:37:40.805Z,62.94
2023-01-17T13:41:31.515Z,63.11
2023-01-17T13:44:50.882Z,62.76
2023-01-17T13:55:19.619Z,62.99
2023-01-17T13:59:19.219Z,62.51
2023-01-17T14:37:53.312Z,62.55
2023-01-17T14:40:26.467Z,62.00
2023-01-17T14:43:11.549Z,62.11
2023-01-17T14:45:40.310Z,61.80
2023-01-17T14:48:17.087Z,61.58
2023-01-17T14:50:46.831Z,61.25
2023-01-17T14:53:28.357Z,61.40
2023-01-17T14:56:13.596Z,60.93
2023-01-17T14:58:41.808Z,60.77
2023-01-17T15:01:15.222Z,60.88
2023-01-17T15:03:51.702Z,60.91
2023-01-17T15:06:23.905Z,60.97
2023-01-17T15:08:54.352Z,61.18
2023-01-17T15:11:29.781Z,61.09
2023-01-17T15:13:59.652Z,60.88
2023-01-17T15:16:31.189Z,60.71
2023-01-17T15:18:59.736Z,60.50
2023-01-17T15:21:37.013Z,60.52
2023-01-17T15:24:08.351Z,60.28
2023-01-17T15:26:39.903Z,61.04
2023-01-17T15:29:15.800Z,60.70
2023-01-17T15:31:47.271Z,60.83
2023-01-17T15:34:25.628Z,61.19
2023-01-17T15:36:57.173Z,61.11
2023-01-17T15:39:30.372Z,61.07
2023-01-17T15:42:01.123Z,61.10
2023-01-17T15:44:53.286Z,61.09
2023-01-17T15:47:28.245Z,61.25
2023-01-17T15:49:56.767Z,61.05
2023-01-17T15:52:24.663Z,61.22
2023-01-17T15:54:54.822Z,61.06
2023-01-17T15:57:37.667Z,61.12
2023-01-17T16:00:09.501Z,61.30
2023-01-17T16:02:44.565Z,61.25
2023-01-17T16:05:25.157Z,61.31
2023-01-17T16:08:02.701Z,61.84
2023-01-17T16:10:36.442Z,61.63
2023-01-17T16:13:12.093Z,61.90
2023-01-17T16:15:41.706Z,61.99
2023-01-17T16:18:18.440Z,62.02
2023-01-17T16:20:59.568Z,62.10
2023-01-17T16:23:28.040Z,62.02
2023-01-17T16:25:55.979Z,62.23
2023-01-17T16:28:24.704Z,62.17
2023-01-17T16:30:54.118Z,62.37
2023-01-17T16:33:22.210Z,62.23
2023-01-17T16:35:54.099Z,62.41
2023-01-17T16:38:21.965Z,62.32
2023-01-17T16:40:49.837Z,62.38
2023-01-17T16:43:19.644Z,62.38
2023-01-17T16:45:50.535Z,62.58
2023-01-17T16:48:19.373Z,62.56
2023-01-17T16:50:50.727Z,62.60
2023-01-17T16:53:25.088Z,62.82
2023-01-17T16:55:57.209Z,62.95
2023-01-17T16:58:25.692Z,62.91
2023-01-17T17:00:55.731Z,63.05
2023-01-17T17:03:23.873Z,63.27
2023-01-17T17:06:00.550Z,63.03
2023-01-17T17:08:29.750Z,63.00
2023-01-17T17:11:15.021Z,63.30
2023-01-17T17:13:43.600Z,63.22
2023-01-17T17:16:27.652Z,63.30
2023-01-17T17:18:58.549Z,63.12
2023-01-17T17:21:27.400Z,63.12
2023-01-17T17:23:58.070Z,63.10
2023-01-17T17:26:29.108Z,63.20
2023-01-17T17:28:57.942Z,63.27
2023-01-17T17:31:25.985Z,63.30
2023-01-17T17:33:58.490Z,63.44
2023-01-17T17:36:26.786Z,63.48
2023-01-17T17:38:56.121Z,63.61
2023-01-17T17:41:26.893Z,63.54
2023-01-17T17:43:55.314Z,63.64
2023-01-17T17:46:31.742Z,63.72
2023-01-17T17:49:01.167Z,64.02
2023-01-17T17:51:34.536Z,63.95
2023-01-17T17:54:07.302Z,63.92
2023-01-17T17:56:36.792Z,63.85
2023-01-17T17:59:09.084Z,63.81
2023-01-17T18:01:38.475Z,63.70
2023-01-17T18:04:10.370Z,63.83
2023-01-17T18:06:38.965Z,63.61
2023-01-17T18:09:08.485Z,63.76
2023-01-17T18:11:38.145Z,63.65
2023-01-17T18:14:09.625Z,63.86
2023-01-17T18:16:43.588Z,63.79
2023-01-17T18:19:17.549Z,64.07
2023-01-17T18:21:45.696Z,64.04
2023-01-17T18:24:18.516Z,64.30
2023-01-17T18:26:48.252Z,64.25
2023-01-17T18:29:17.889Z,64.35
2023-01-17T18:31:47.520Z,64.45
2023-01-17T18:34:17.771Z,64.52
2023-01-17T18:36:45.720Z,64.70
2023-01-17T18:39:27.879Z,64.74
2023-01-17T18:41:56.126Z,64.93
2023-01-17T18:44:24.177Z,65.06
2023-01-17T18:46:55.454Z,65.16
2023-01-17T18:49:23.590Z,65.17
2023-01-17T18:51:51.843Z,65.10
2023-01-17T18:54:20.462Z,65.00
2023-01-17T18:56:48.765Z,65.13
2023-01-17T18:59:21.550Z,65.25
2023-01-17T19:01:50.268Z,65.25
2023-01-17T19:04:18.979Z,65.11
2023-01-17T19:06:48.305Z,65.22
2023-01-17T19:09:17.205Z,65.23
2023-01-17T19:11:46.626Z,65.65
2023-01-17T19:14:14.784Z,65.43
2023-01-17T19:16:43.446Z,65.24
2023-01-17T19:19:14.239Z,65.28
2023-01-17T19:21:42.238Z,65.37
2023-01-17T19:24:13.239Z,65.01
2023-01-17T19:26:42.264Z,64.88
2023-01-17T19:29:10.630Z,65.00
2023-01-17T19:31:45.880Z,65.33
2023-01-17T19:34:15.389Z,65.17
2023-01-17T19:36:43.402Z,65.37
2023-01-17T19:39:12.074Z,65.34
2023-01-17T19:41:45.317Z,65.48
2023-01-17T19:44:14.681Z,65.18
2023-01-17T19:46:43.975Z,65.20
2023-01-17T19:49:12.341Z,65.33
2023-01-17T19:51:40.528Z,65.53
2023-01-17T19:54:09.081Z,65.50
2023-01-17T19:56:37.252Z,65.63
2023-01-17T19:59:06.426Z,65.76
2023-01-17T20:01:35.190Z,65.74
2023-01-17T20:04:03.993Z,65.96
2023-01-17T20:06:37.181Z,65.93
2023-01-17T20:09:05.975Z,66.14
2023-01-17T20:11:35.175Z,66.39
2023-01-17T20:14:05.595Z,66.56
2023-01-17T20:16:35.707Z,66.62
2023-01-17T20:19:04.120Z,66.77
2023-01-17T20:21:33.367Z,66.76
2023-01-17T20:24:03.507Z,66.92
2023-01-17T20:26:37.178Z,66.82
2023-01-17T20:29:10.468Z,66.90
2023-01-17T20:31:40.397Z,66.93
2023-01-17T20:34:10.950Z,66.97
2023-01-17T20:36:40.622Z,67.02
2023-01-17T20:39:11.155Z,67.12
2023-01-17T20:41:41.561Z,67.06
2023-01-17T20:44:13.369Z,67.14
2023-01-17T20:46:41.962Z,67.29
2023-01-17T20:49:15.051Z,67.27
2023-01-17T20:51:44.619Z,67.25
2023-01-17T20:54:15.292Z,67.43
2023-01-17T20:56:43.590Z,67.60
2023-01-17T20:59:16.912Z,67.51
2023-01-17T21:01:45.521Z,67.64
2023-01-17T21:04:15.193Z,67.60
2023-01-17T21:06:43.827Z,67.71
2023-01-17T21:09:14.799Z,67.71
2023-01-17T21:11:42.748Z,67.88
2023-01-17T21:14:10.670Z,67.83
2023-01-17T21:16:39.022Z,67.96
2023-01-17T21:19:09.351Z,67.91
2023-01-17T21:21:37.439Z,67.67
2023-01-17T21:24:05.806Z,67.70
2023-01-17T21:26:34.070Z,67.61
2023-01-17T21:29:02.154Z,67.74
2023-01-17T21:31:34.187Z,67.73
2023-01-17T21:34:07.735Z,67.80
2023-01-17T21:36:38.240Z,68.09
2023-01-17T21:39:10.110Z,67.89
2023-01-17T21:41:40.204Z,68.16
2023-01-17T21:44:13.114Z,68.25
2023-01-17T21:46:41.155Z,68.25
2023-01-17T21:49:13.131Z,68.08
2023-01-17T21:51:54.892Z,68.14
2023-01-17T21:54:46.842Z,68.10
2023-01-17T21:57:38.705Z,68.20
2023-01-17T22:00:10.286Z,68.09
2023-01-17T22:02:38.559Z,68.29
2023-01-17T22:05:08.353Z,68.35
2023-01-17T22:07:39.349Z,68.38
2023-01-17T22:10:07.573Z,68.46
2023-01-17T22:12:37.940Z,68.42
2023-01-17T22:15:06.985Z,68.23
2023-01-17T22:17:34.975Z,68.09
2023-01-17T22:20:02.898Z,68.21
2023-01-17T22:22:32.646Z,68.36
2023-01-17T22:25:00.505Z,68.30
2023-01-17T22:27:29.013Z,68.49
2023-01-17T22:29:57.086Z,68.49
2023-01-17T22:32:25.283Z,68.57
2023-01-17T22:34:53.753Z,68.68
2023-01-17T22:37:21.870Z,68.73
2023-01-17T22:39:49.810Z,68.92
2023-01-17T22:42:17.712Z,69.03
2023-01-17T22:44:48.007Z,68.98
2023-01-17T22:47:15.931Z,69.18
2023-01-17T22:49:46.207Z,69.42
2023-01-17T22:52:14.365Z,69.43
2023-01-17T22:54:42.209Z,69.57
2023-01-17T22:57:10.255Z,69.56
2023-01-17T22:59:38.592Z,69.56
2023-01-17T23:02:06.519Z,69.52
2023-01-17T23:04:34.475Z,69.68
2023-01-17T23:07:02.558Z,69.50
2023-01-17T23:09:30.892Z,69.81
2023-01-17T23:11:58.868Z,69.89
2023-01-17T23:14:27.001Z,69.87
2023-01-17T23:17:18.462Z,69.91
2023-01-17T23:19:48.840Z,70.02
2023-01-17T23:22:22.133Z,70.07
2023-01-17T23:25:11.971Z,70.06
2023-01-17T23:28:03.604Z,70.34
2023-01-17T23:30:37.452Z,70.39
2023-01-17T23:33:10.613Z,70.48
2023-01-17T23:35:42.194Z,70.64
2023-01-17T23:38:34.649Z,70.49
2023-01-17T23:41:25.025Z,70.64
2023-01-17T23:43:54.379Z,70.48
2023-01-17T23:46:23.024Z,70.35
2023-01-17T23:48:51.346Z,70.30
2023-01-17T23:51:19.230Z,70.23
2023-01-17T23:53:47.639Z,70.52
2023-01-17T23:56:19.547Z,70.51
2023-01-17T23:58:47.420Z,70.39
